sensor_id;sensor_type;location;lat;lon;timestamp;temperature;humidity
64937;SHT30;51452;47.698;19.050;2023-06-22T00:01:09;22.29;77.43
64937;SHT30;51452;47.698;19.050;2023-06-22T00:03:35;22.22;77.18
64937;SHT30;51452;47.698;19.050;2023-06-22T00:06:00;22.12;78.06
64937;SHT30;51452;47.698;19.050;2023-06-22T00:08:26;22.04;78.20
64937;SHT30;51452;47.698;19.050;2023-06-22T00:10:51;22.10;77.80
64937;SHT30;51452;47.698;19.050;2023-06-22T00:13:17;22.08;77.71
64937;SHT30;51452;47.698;19.050;2023-06-22T00:15:43;22.06;78.17
64937;SHT30;51452;47.698;19.050;2023-06-22T00:18:10;22.10;78.14
64937;SHT30;51452;47.698;19.050;2023-06-22T00:20:36;22.10;77.45
64937;SHT30;51452;47.698;19.050;2023-06-22T00:23:06;22.16;77.64
64937;SHT30;51452;47.698;19.050;2023-06-22T00:25:40;22.12;76.71
64937;SHT30;51452;47.698;19.050;2023-06-22T00:28:06;22.12;77.00
64937;SHT30;51452;47.698;19.050;2023-06-22T00:30:32;22.06;76.07
64937;SHT30;51452;47.698;19.050;2023-06-22T00:32:58;22.05;75.69
64937;SHT30;51452;47.698;19.050;2023-06-22T00:35:24;21.91;74.53
64937;SHT30;51452;47.698;19.050;2023-06-22T00:37:57;21.89;74.63
64937;SHT30;51452;47.698;19.050;2023-06-22T00:40:32;21.94;75.67
64937;SHT30;51452;47.698;19.050;2023-06-22T00:42:58;21.78;76.30
64937;SHT30;51452;47.698;19.050;2023-06-22T00:45:25;21.88;76.65
64937;SHT30;51452;47.698;19.050;2023-06-22T00:47:52;21.88;77.70
64937;SHT30;51452;47.698;19.050;2023-06-22T00:50:20;21.89;77.76
64937;SHT30;51452;47.698;19.050;2023-06-22T00:52:49;21.92;77.33
64937;SHT30;51452;47.698;19.050;2023-06-22T00:55:16;21.92;76.98
64937;SHT30;51452;47.698;19.050;2023-06-22T00:57:45;21.92;77.32
64937;SHT30;51452;47.698;19.050;2023-06-22T01:00:11;21.98;77.27
64937;SHT30;51452;47.698;19.050;2023-06-22T01:02:44;21.98;77.21
64937;SHT30;51452;47.698;19.050;2023-06-22T01:05:13;21.98;77.17
64937;SHT30;51452;47.698;19.050;2023-06-22T01:10:36;21.81;76.67
64937;SHT30;51452;47.698;19.050;2023-06-22T01:14:27;21.68;77.46
64937;SHT30;51452;47.698;19.050;2023-06-22T01:16:24;21.74;77.88
64937;SHT30;51452;47.698;19.050;2023-06-22T01:18:52;21.78;78.29
64937;SHT30;51452;47.698;19.050;2023-06-22T01:21:21;21.81;78.03
64937;SHT30;51452;47.698;19.050;2023-06-22T01:27:20;21.74;77.82
64937;SHT30;51452;47.698;19.050;2023-06-22T01:29:26;21.73;77.87
64937;SHT30;51452;47.698;19.050;2023-06-22T01:31:54;21.77;78.30
64937;SHT30;51452;47.698;19.050;2023-06-22T01:34:22;21.77;77.90
64937;SHT30;51452;47.698;19.050;2023-06-22T01:36:49;21.67;77.76
64937;SHT30;51452;47.698;19.050;2023-06-22T01:39:15;21.69;77.69
64937;SHT30;51452;47.698;19.050;2023-06-22T01:41:42;21.73;77.93
64937;SHT30;51452;47.698;19.050;2023-06-22T01:44:08;21.75;77.48
64937;SHT30;51452;47.698;19.050;2023-06-22T01:46:35;21.77;77.43
64937;SHT30;51452;47.698;19.050;2023-06-22T01:49:02;21.78;77.85
64937;SHT30;51452;47.698;19.050;2023-06-22T01:51:29;21.75;77.43
64937;SHT30;51452;47.698;19.050;2023-06-22T01:53:55;21.75;77.53
64937;SHT30;51452;47.698;19.050;2023-06-22T01:56:20;21.78;78.18
64937;SHT30;51452;47.698;19.050;2023-06-22T01:58:57;21.77;77.26
64937;SHT30;51452;47.698;19.050;2023-06-22T02:01:28;21.69;77.88
64937;SHT30;51452;47.698;19.050;2023-06-22T02:04:05;21.67;77.60
64937;SHT30;51452;47.698;19.050;2023-06-22T02:06:36;21.67;77.93
64937;SHT30;51452;47.698;19.050;2023-06-22T02:09:08;21.67;78.05
64937;SHT30;51452;47.698;19.050;2023-06-22T02:11:36;21.61;77.98
64937;SHT30;51452;47.698;19.050;2023-06-22T02:14:02;21.54;77.07
64937;SHT30;51452;47.698;19.050;2023-06-22T02:16:31;21.53;77.07
64937;SHT30;51452;47.698;19.050;2023-06-22T02:18:57;21.46;76.91
64937;SHT30;51452;47.698;19.050;2023-06-22T02:21:28;21.43;76.86
64937;SHT30;51452;47.698;19.050;2023-06-22T02:23:54;21.40;77.07
64937;SHT30;51452;47.698;19.050;2023-06-22T02:26:19;21.34;75.06
64937;SHT30;51452;47.698;19.050;2023-06-22T02:28:45;21.44;75.47
64937;SHT30;51452;47.698;19.050;2023-06-22T02:31:11;21.48;75.48
64937;SHT30;51452;47.698;19.050;2023-06-22T02:33:36;21.48;76.31
64937;SHT30;51452;47.698;19.050;2023-06-22T02:36:02;21.54;76.39
64937;SHT30;51452;47.698;19.050;2023-06-22T02:38:35;21.54;76.22
64937;SHT30;51452;47.698;19.050;2023-06-22T02:41:01;21.59;76.21
64937;SHT30;51452;47.698;19.050;2023-06-22T02:43:27;21.57;76.47
64937;SHT30;51452;47.698;19.050;2023-06-22T02:45:52;21.59;76.79
64937;SHT30;51452;47.698;19.050;2023-06-22T02:48:18;21.57;77.14
64937;SHT30;51452;47.698;19.050;2023-06-22T02:50:44;21.61;76.69
64937;SHT30;51452;47.698;19.050;2023-06-22T02:53:09;21.46;76.86
64937;SHT30;51452;47.698;19.050;2023-06-22T02:55:34;21.48;77.10
64937;SHT30;51452;47.698;19.050;2023-06-22T02:58:00;21.38;77.76
64937;SHT30;51452;47.698;19.050;2023-06-22T03:00:29;21.37;78.88
64937;SHT30;51452;47.698;19.050;2023-06-22T03:02:56;21.38;78.92
64937;SHT30;51452;47.698;19.050;2023-06-22T03:05:22;21.30;79.30
64937;SHT30;51452;47.698;19.050;2023-06-22T03:07:48;21.27;79.57
64937;SHT30;51452;47.698;19.050;2023-06-22T03:10:15;21.34;78.71
64937;SHT30;51452;47.698;19.050;2023-06-22T03:12:42;21.38;78.31
64937;SHT30;51452;47.698;19.050;2023-06-22T03:15:10;21.36;78.94
64937;SHT30;51452;47.698;19.050;2023-06-22T03:17:37;21.34;78.30
64937;SHT30;51452;47.698;19.050;2023-06-22T03:20:04;21.40;78.25
64937;SHT30;51452;47.698;19.050;2023-06-22T03:22:41;21.46;78.34
64937;SHT30;51452;47.698;19.050;2023-06-22T03:25:07;21.36;78.53
64937;SHT30;51452;47.698;19.050;2023-06-22T03:27:41;21.43;78.12
64937;SHT30;51452;47.698;19.050;2023-06-22T03:30:08;21.48;78.52
64937;SHT30;51452;47.698;19.050;2023-06-22T03:32:34;21.54;78.77
64937;SHT30;51452;47.698;19.050;2023-06-22T03:34:59;21.48;78.88
64937;SHT30;51452;47.698;19.050;2023-06-22T03:37:25;21.55;78.79
64937;SHT30;51452;47.698;19.050;2023-06-22T03:39:51;21.54;79.04
64937;SHT30;51452;47.698;19.050;2023-06-22T03:42:17;21.51;79.51
64937;SHT30;51452;47.698;19.050;2023-06-22T03:44:42;21.58;79.22
64937;SHT30;51452;47.698;19.050;2023-06-22T03:47:07;21.53;79.46
64937;SHT30;51452;47.698;19.050;2023-06-22T03:49:34;21.54;79.50
64937;SHT30;51452;47.698;19.050;2023-06-22T03:52:00;21.59;79.50
64937;SHT30;51452;47.698;19.050;2023-06-22T03:54:28;21.61;79.17
64937;SHT30;51452;47.698;19.050;2023-06-22T03:56:53;21.59;79.53
64937;SHT30;51452;47.698;19.050;2023-06-22T03:59:19;21.67;79.42
64937;SHT30;51452;47.698;19.050;2023-06-22T04:01:44;21.74;79.36
64937;SHT30;51452;47.698;19.050;2023-06-22T04:04:10;21.74;79.58
64937;SHT30;51452;47.698;19.050;2023-06-22T04:06:35;21.79;79.61
64937;SHT30;51452;47.698;19.050;2023-06-22T04:09:01;21.77;79.46
64937;SHT30;51452;47.698;19.050;2023-06-22T04:11:26;21.73;79.07
64937;SHT30;51452;47.698;19.050;2023-06-22T04:13:51;21.78;79.44
64937;SHT30;51452;47.698;19.050;2023-06-22T04:16:17;21.78;80.25
64937;SHT30;51452;47.698;19.050;2023-06-22T04:18:42;21.84;80.14
64937;SHT30;51452;47.698;19.050;2023-06-22T04:21:08;21.84;79.98
64937;SHT30;51452;47.698;19.050;2023-06-22T04:23:33;21.86;80.18
64937;SHT30;51452;47.698;19.050;2023-06-22T04:25:58;21.95;80.06
64937;SHT30;51452;47.698;19.050;2023-06-22T04:28:26;21.99;79.75
64937;SHT30;51452;47.698;19.050;2023-06-22T04:30:52;22.06;80.35
64937;SHT30;51452;47.698;19.050;2023-06-22T04:33:17;22.12;80.36
64937;SHT30;51452;47.698;19.050;2023-06-22T04:35:46;22.17;80.68
64937;SHT30;51452;47.698;19.050;2023-06-22T04:38:14;22.33;80.23
64937;SHT30;51452;47.698;19.050;2023-06-22T04:40:40;22.37;79.98
64937;SHT30;51452;47.698;19.050;2023-06-22T04:43:05;22.36;79.75
64937;SHT30;51452;47.698;19.050;2023-06-22T04:45:32;22.47;79.59
64937;SHT30;51452;47.698;19.050;2023-06-22T04:47:58;22.56;78.00
64937;SHT30;51452;47.698;19.050;2023-06-22T04:50:23;22.67;77.75
64937;SHT30;51452;47.698;19.050;2023-06-22T04:52:49;22.73;77.26
64937;SHT30;51452;47.698;19.050;2023-06-22T04:55:16;22.74;77.02
64937;SHT30;51452;47.698;19.050;2023-06-22T04:57:48;22.70;77.95
64937;SHT30;51452;47.698;19.050;2023-06-22T05:00:20;22.76;78.42
64937;SHT30;51452;47.698;19.050;2023-06-22T05:02:47;22.80;78.74
64937;SHT30;51452;47.698;19.050;2023-06-22T05:05:13;22.81;78.72
64937;SHT30;51452;47.698;19.050;2023-06-22T05:07:51;22.80;78.14
64937;SHT30;51452;47.698;19.050;2023-06-22T05:10:18;22.87;78.38
64937;SHT30;51452;47.698;19.050;2023-06-22T05:12:44;22.94;77.55
64937;SHT30;51452;47.698;19.050;2023-06-22T05:15:10;22.98;77.74
64937;SHT30;51452;47.698;19.050;2023-06-22T05:17:36;23.01;77.60
64937;SHT30;51452;47.698;19.050;2023-06-22T05:20:02;23.08;78.03
64937;SHT30;51452;47.698;19.050;2023-06-22T05:22:31;23.11;77.21
64937;SHT30;51452;47.698;19.050;2023-06-22T05:24:56;23.18;77.25
64937;SHT30;51452;47.698;19.050;2023-06-22T05:27:22;23.21;77.06
64937;SHT30;51452;47.698;19.050;2023-06-22T05:29:47;23.29;77.70
64937;SHT30;51452;47.698;19.050;2023-06-22T05:32:12;23.31;77.32
64937;SHT30;51452;47.698;19.050;2023-06-22T05:34:38;23.39;77.07
64937;SHT30;51452;47.698;19.050;2023-06-22T05:37:04;23.45;77.06
64937;SHT30;51452;47.698;19.050;2023-06-22T05:39:29;23.42;76.77
64937;SHT30;51452;47.698;19.050;2023-06-22T05:41:55;23.55;76.48
64937;SHT30;51452;47.698;19.050;2023-06-22T05:44:20;23.62;76.43
64937;SHT30;51452;47.698;19.050;2023-06-22T05:46:46;23.67;76.30
64937;SHT30;51452;47.698;19.050;2023-06-22T05:49:15;23.76;76.07
64937;SHT30;51452;47.698;19.050;2023-06-22T05:51:42;23.82;75.42
64937;SHT30;51452;47.698;19.050;2023-06-22T05:54:07;23.86;75.02
64937;SHT30;51452;47.698;19.050;2023-06-22T05:56:35;23.93;74.39
64937;SHT30;51452;47.698;19.050;2023-06-22T05:59:01;24.00;74.32
64937;SHT30;51452;47.698;19.050;2023-06-22T06:01:26;24.06;74.82
64937;SHT30;51452;47.698;19.050;2023-06-22T06:03:52;24.09;75.17
64937;SHT30;51452;47.698;19.050;2023-06-22T06:06:18;24.12;75.07
64937;SHT30;51452;47.698;19.050;2023-06-22T06:08:46;24.14;74.25
64937;SHT30;51452;47.698;19.050;2023-06-22T06:11:11;24.24;75.01
64937;SHT30;51452;47.698;19.050;2023-06-22T06:13:37;24.30;73.90
64937;SHT30;51452;47.698;19.050;2023-06-22T06:16:02;24.38;74.90
64937;SHT30;51452;47.698;19.050;2023-06-22T06:18:28;24.45;75.55
64937;SHT30;51452;47.698;19.050;2023-06-22T06:20:53;24.51;74.22
64937;SHT30;51452;47.698;19.050;2023-06-22T06:23:18;24.54;74.04
64937;SHT30;51452;47.698;19.050;2023-06-22T06:25:44;24.61;73.63
64937;SHT30;51452;47.698;19.050;2023-06-22T06:28:09;24.69;74.01
64937;SHT30;51452;47.698;19.050;2023-06-22T06:30:36;24.72;74.46
64937;SHT30;51452;47.698;19.050;2023-06-22T06:33:02;24.82;74.60
64937;SHT30;51452;47.698;19.050;2023-06-22T06:35:28;24.78;74.47
64937;SHT30;51452;47.698;19.050;2023-06-22T06:37:53;24.84;73.53
64937;SHT30;51452;47.698;19.050;2023-06-22T06:40:18;24.74;72.79
64937;SHT30;51452;47.698;19.050;2023-06-22T06:42:45;24.74;72.96
64937;SHT30;51452;47.698;19.050;2023-06-22T06:47:38;24.76;72.55
64937;SHT30;51452;47.698;19.050;2023-06-22T06:50:05;24.82;71.93
64937;SHT30;51452;47.698;19.050;2023-06-22T06:52:30;24.91;72.62
64937;SHT30;51452;47.698;19.050;2023-06-22T06:54:56;24.99;72.49
64937;SHT30;51452;47.698;19.050;2023-06-22T06:57:21;25.04;71.64
64937;SHT30;51452;47.698;19.050;2023-06-22T06:59:48;25.15;72.42
64937;SHT30;51452;47.698;19.050;2023-06-22T07:02:17;25.25;72.12
64937;SHT30;51452;47.698;19.050;2023-06-22T07:04:42;25.23;70.24
64937;SHT30;51452;47.698;19.050;2023-06-22T07:07:08;25.33;70.07
64937;SHT30;51452;47.698;19.050;2023-06-22T07:09:33;25.27;69.99
64937;SHT30;51452;47.698;19.050;2023-06-22T07:11:58;25.40;70.34
64937;SHT30;51452;47.698;19.050;2023-06-22T07:14:24;25.37;69.18
64937;SHT30;51452;47.698;19.050;2023-06-22T07:16:49;25.49;69.11
64937;SHT30;51452;47.698;19.050;2023-06-22T07:19:15;25.47;69.67
64937;SHT30;51452;47.698;19.050;2023-06-22T07:21:40;25.51;67.79
64937;SHT30;51452;47.698;19.050;2023-06-22T07:24:06;25.56;68.84
64937;SHT30;51452;47.698;19.050;2023-06-22T07:26:32;25.63;67.25
64937;SHT30;51452;47.698;19.050;2023-06-22T07:28:58;25.66;66.62
64937;SHT30;51452;47.698;19.050;2023-06-22T07:31:26;25.57;63.25
64937;SHT30;51452;47.698;19.050;2023-06-22T07:33:52;25.70;64.46
64937;SHT30;51452;47.698;19.050;2023-06-22T07:36:18;25.64;63.90
64937;SHT30;51452;47.698;19.050;2023-06-22T07:38:43;25.70;63.89
64937;SHT30;51452;47.698;19.050;2023-06-22T07:41:09;25.77;63.91
64937;SHT30;51452;47.698;19.050;2023-06-22T07:43:34;25.78;63.64
64937;SHT30;51452;47.698;19.050;2023-06-22T07:46:03;25.95;64.18
64937;SHT30;51452;47.698;19.050;2023-06-22T07:48:28;25.90;62.40
64937;SHT30;51452;47.698;19.050;2023-06-22T07:50:54;25.90;63.75
64937;SHT30;51452;47.698;19.050;2023-06-22T07:53:20;26.05;63.87
64937;SHT30;51452;47.698;19.050;2023-06-22T07:55:45;26.02;63.63
64937;SHT30;51452;47.698;19.050;2023-06-22T07:58:11;26.02;65.60
64937;SHT30;51452;47.698;19.050;2023-06-22T08:00:36;26.17;66.51
64937;SHT30;51452;47.698;19.050;2023-06-22T08:03:02;26.26;65.53
64937;SHT30;51452;47.698;19.050;2023-06-22T08:05:30;26.25;64.72
64937;SHT30;51452;47.698;19.050;2023-06-22T08:07:56;26.35;65.73
64937;SHT30;51452;47.698;19.050;2023-06-22T08:10:21;26.38;66.25
64937;SHT30;51452;47.698;19.050;2023-06-22T08:12:46;26.48;64.72
64937;SHT30;51452;47.698;19.050;2023-06-22T08:15:12;26.35;66.48
64937;SHT30;51452;47.698;19.050;2023-06-22T08:17:38;26.48;64.94
64937;SHT30;51452;47.698;19.050;2023-06-22T08:20:04;26.56;66.97
64937;SHT30;51452;47.698;19.050;2023-06-22T08:22:35;26.69;64.28
64937;SHT30;51452;47.698;19.050;2023-06-22T08:25:02;26.63;64.54
64937;SHT30;51452;47.698;19.050;2023-06-22T08:27:29;26.62;65.52
64937;SHT30;51452;47.698;19.050;2023-06-22T08:29:56;26.75;64.31
64937;SHT30;51452;47.698;19.050;2023-06-22T08:32:24;26.87;64.03
64937;SHT30;51452;47.698;19.050;2023-06-22T08:34:52;26.80;62.77
64937;SHT30;51452;47.698;19.050;2023-06-22T08:37:17;26.90;64.02
64937;SHT30;51452;47.698;19.050;2023-06-22T08:39:42;26.90;61.55
64937;SHT30;51452;47.698;19.050;2023-06-22T08:42:08;26.96;61.57
64937;SHT30;51452;47.698;19.050;2023-06-22T08:44:33;26.99;62.76
64937;SHT30;51452;47.698;19.050;2023-06-22T08:46:59;27.07;63.11
64937;SHT30;51452;47.698;19.050;2023-06-22T08:49:24;27.10;63.00
64937;SHT30;51452;47.698;19.050;2023-06-22T08:51:49;27.02;64.35
64937;SHT30;51452;47.698;19.050;2023-06-22T08:54:17;27.02;64.61
64937;SHT30;51452;47.698;19.050;2023-06-22T08:56:42;27.06;61.66
64937;SHT30;51452;47.698;19.050;2023-06-22T08:59:09;27.10;63.26
64937;SHT30;51452;47.698;19.050;2023-06-22T09:01:34;27.22;61.97
64937;SHT30;51452;47.698;19.050;2023-06-22T09:04:00;27.31;62.38
64937;SHT30;51452;47.698;19.050;2023-06-22T09:06:25;27.35;61.89
64937;SHT30;51452;47.698;19.050;2023-06-22T09:08:51;27.41;61.44
64937;SHT30;51452;47.698;19.050;2023-06-22T09:11:16;27.48;59.58
64937;SHT30;51452;47.698;19.050;2023-06-22T09:13:42;27.57;61.40
64937;SHT30;51452;47.698;19.050;2023-06-22T09:16:07;27.50;62.00
64937;SHT30;51452;47.698;19.050;2023-06-22T09:18:36;27.54;60.67
64937;SHT30;51452;47.698;19.050;2023-06-22T09:21:01;27.58;62.50
64937;SHT30;51452;47.698;19.050;2023-06-22T09:23:27;27.65;61.56
64937;SHT30;51452;47.698;19.050;2023-06-22T09:25:52;27.78;60.61
64937;SHT30;51452;47.698;19.050;2023-06-22T09:28:18;27.78;61.90
64937;SHT30;51452;47.698;19.050;2023-06-22T09:30:43;27.82;60.40
64937;SHT30;51452;47.698;19.050;2023-06-22T09:33:09;27.88;64.20
64937;SHT30;51452;47.698;19.050;2023-06-22T09:35:35;27.95;60.03
64937;SHT30;51452;47.698;19.050;2023-06-22T09:38:00;27.95;59.39
64937;SHT30;51452;47.698;19.050;2023-06-22T09:40:26;27.94;59.68
64937;SHT30;51452;47.698;19.050;2023-06-22T09:42:51;28.02;58.38
64937;SHT30;51452;47.698;19.050;2023-06-22T09:45:16;28.08;59.74
64937;SHT30;51452;47.698;19.050;2023-06-22T09:47:42;28.02;61.99
64937;SHT30;51452;47.698;19.050;2023-06-22T09:50:07;28.01;60.03
64937;SHT30;51452;47.698;19.050;2023-06-22T09:52:33;28.09;61.17
64937;SHT30;51452;47.698;19.050;2023-06-22T09:54:59;28.13;57.80
64937;SHT30;51452;47.698;19.050;2023-06-22T09:57:24;28.12;58.50
64937;SHT30;51452;47.698;19.050;2023-06-22T09:59:50;28.16;60.36
64937;SHT30;51452;47.698;19.050;2023-06-22T10:02:15;28.22;59.00
64937;SHT30;51452;47.698;19.050;2023-06-22T10:04:40;28.27;57.80
64937;SHT30;51452;47.698;19.050;2023-06-22T10:07:09;28.31;56.67
64937;SHT30;51452;47.698;19.050;2023-06-22T10:09:34;28.31;58.89
64937;SHT30;51452;47.698;19.050;2023-06-22T10:12:00;28.37;57.61
64937;SHT30;51452;47.698;19.050;2023-06-22T10:14:25;28.35;56.66
64937;SHT30;51452;47.698;19.050;2023-06-22T10:16:52;28.40;55.08
64937;SHT30;51452;47.698;19.050;2023-06-22T10:19:17;28.43;55.17
64937;SHT30;51452;47.698;19.050;2023-06-22T10:21:43;28.43;57.58
64937;SHT30;51452;47.698;19.050;2023-06-22T10:24:09;28.59;56.11
64937;SHT30;51452;47.698;19.050;2023-06-22T10:26:35;28.63;56.55
64937;SHT30;51452;47.698;19.050;2023-06-22T10:29:04;28.60;56.68
64937;SHT30;51452;47.698;19.050;2023-06-22T10:31:29;28.66;57.72
64937;SHT30;51452;47.698;19.050;2023-06-22T10:33:55;28.73;58.38
64937;SHT30;51452;47.698;19.050;2023-06-22T10:36:21;28.71;57.06
64937;SHT30;51452;47.698;19.050;2023-06-22T10:38:47;28.73;53.29
64937;SHT30;51452;47.698;19.050;2023-06-22T10:41:13;28.81;55.18
64937;SHT30;51452;47.698;19.050;2023-06-22T10:43:38;28.83;54.77
64937;SHT30;51452;47.698;19.050;2023-06-22T10:46:04;28.80;54.94
64937;SHT30;51452;47.698;19.050;2023-06-22T10:48:29;28.86;55.51
64937;SHT30;51452;47.698;19.050;2023-06-22T10:50:55;28.81;58.38
64937;SHT30;51452;47.698;19.050;2023-06-22T10:53:20;28.91;57.34
64937;SHT30;51452;47.698;19.050;2023-06-22T10:55:46;29.03;57.57
64937;SHT30;51452;47.698;19.050;2023-06-22T10:58:12;29.04;58.75
64937;SHT30;51452;47.698;19.050;2023-06-22T11:00:37;29.11;57.40
64937;SHT30;51452;47.698;19.050;2023-06-22T11:03:03;29.19;56.07
64937;SHT30;51452;47.698;19.050;2023-06-22T11:05:28;29.18;57.24
64937;SHT30;51452;47.698;19.050;2023-06-22T11:07:53;29.18;56.81
64937;SHT30;51452;47.698;19.050;2023-06-22T11:10:19;29.29;56.98
64937;SHT30;51452;47.698;19.050;2023-06-22T11:12:44;29.21;54.82
64937;SHT30;51452;47.698;19.050;2023-06-22T11:15:10;29.26;55.16
64937;SHT30;51452;47.698;19.050;2023-06-22T11:17:35;29.32;58.94
64937;SHT30;51452;47.698;19.050;2023-06-22T11:20:01;29.31;57.74
64937;SHT30;51452;47.698;19.050;2023-06-22T11:22:27;29.28;54.13
64937;SHT30;51452;47.698;19.050;2023-06-22T11:24:52;29.32;54.23
64937;SHT30;51452;47.698;19.050;2023-06-22T11:27:18;29.42;55.62
64937;SHT30;51452;47.698;19.050;2023-06-22T11:29:43;29.41;55.82
64937;SHT30;51452;47.698;19.050;2023-06-22T11:32:08;29.41;55.79
64937;SHT30;51452;47.698;19.050;2023-06-22T11:34:34;29.58;57.19
64937;SHT30;51452;47.698;19.050;2023-06-22T11:36:59;29.52;54.88
64937;SHT30;51452;47.698;19.050;2023-06-22T11:39:25;29.49;55.84
64937;SHT30;51452;47.698;19.050;2023-06-22T11:41:50;29.63;54.34
64937;SHT30;51452;47.698;19.050;2023-06-22T11:44:15;29.61;57.11
64937;SHT30;51452;47.698;19.050;2023-06-22T11:46:41;29.70;56.06
64937;SHT30;51452;47.698;19.050;2023-06-22T11:49:07;29.66;53.21
64937;SHT30;51452;47.698;19.050;2023-06-22T11:51:33;29.69;54.26
64937;SHT30;51452;47.698;19.050;2023-06-22T11:53:58;29.75;55.42
64937;SHT30;51452;47.698;19.050;2023-06-22T11:56:24;29.89;55.49
64937;SHT30;51452;47.698;19.050;2023-06-22T11:58:49;29.87;55.84
64937;SHT30;51452;47.698;19.050;2023-06-22T12:01:14;29.92;52.61
64937;SHT30;51452;47.698;19.050;2023-06-22T12:03:40;29.94;54.72
64937;SHT30;51452;47.698;19.050;2023-06-22T12:06:06;29.97;53.91
64937;SHT30;51452;47.698;19.050;2023-06-22T12:08:31;30.04;53.52
64937;SHT30;51452;47.698;19.050;2023-06-22T12:10:57;30.12;55.97
64937;SHT30;51452;47.698;19.050;2023-06-22T12:13:22;30.13;53.73
64937;SHT30;51452;47.698;19.050;2023-06-22T12:15:47;30.13;54.69
64937;SHT30;51452;47.698;19.050;2023-06-22T12:18:13;30.20;55.60
64937;SHT30;51452;47.698;19.050;2023-06-22T12:20:41;30.24;52.45
64937;SHT30;51452;47.698;19.050;2023-06-22T12:23:07;30.14;57.27
64937;SHT30;51452;47.698;19.050;2023-06-22T12:25:32;30.25;51.98
64937;SHT30;51452;47.698;19.050;2023-06-22T12:27:58;30.25;53.70
64937;SHT30;51452;47.698;19.050;2023-06-22T12:30:23;30.24;52.85
64937;SHT30;51452;47.698;19.050;2023-06-22T12:32:49;30.25;51.17
64937;SHT30;51452;47.698;19.050;2023-06-22T12:35:15;30.17;53.88
64937;SHT30;51452;47.698;19.050;2023-06-22T12:37:41;30.33;53.36
64937;SHT30;51452;47.698;19.050;2023-06-22T12:40:10;30.33;51.67
64937;SHT30;51452;47.698;19.050;2023-06-22T12:42:36;30.37;55.02
64937;SHT30;51452;47.698;19.050;2023-06-22T12:45:01;30.34;52.98
64937;SHT30;51452;47.698;19.050;2023-06-22T12:47:27;30.47;51.21
64937;SHT30;51452;47.698;19.050;2023-06-22T12:49:52;30.54;53.21
64937;SHT30;51452;47.698;19.050;2023-06-22T12:52:18;30.58;52.70
64937;SHT30;51452;47.698;19.050;2023-06-22T12:54:43;30.57;52.13
64937;SHT30;51452;47.698;19.050;2023-06-22T12:57:08;30.49;50.42
64937;SHT30;51452;47.698;19.050;2023-06-22T12:59:34;30.55;50.73
64937;SHT30;51452;47.698;19.050;2023-06-22T13:01:59;30.55;54.27
64937;SHT30;51452;47.698;19.050;2023-06-22T13:04:25;30.64;52.50
64937;SHT30;51452;47.698;19.050;2023-06-22T13:06:50;30.61;53.44
64937;SHT30;51452;47.698;19.050;2023-06-22T13:09:18;30.79;50.80
64937;SHT30;51452;47.698;19.050;2023-06-22T13:11:43;30.74;52.55
64937;SHT30;51452;47.698;19.050;2023-06-22T13:14:09;30.84;51.62
64937;SHT30;51452;47.698;19.050;2023-06-22T13:16:34;30.81;51.26
64937;SHT30;51452;47.698;19.050;2023-06-22T13:19:00;30.89;50.84
64937;SHT30;51452;47.698;19.050;2023-06-22T13:21:25;30.89;49.78
64937;SHT30;51452;47.698;19.050;2023-06-22T13:23:51;30.91;47.25
64937;SHT30;51452;47.698;19.050;2023-06-22T13:26:16;30.88;51.83
64937;SHT30;51452;47.698;19.050;2023-06-22T13:28:42;30.96;50.77
64937;SHT30;51452;47.698;19.050;2023-06-22T13:31:07;31.02;53.94
64937;SHT30;51452;47.698;19.050;2023-06-22T13:33:32;31.03;51.94
64937;SHT30;51452;47.698;19.050;2023-06-22T13:35:58;31.06;51.29
64937;SHT30;51452;47.698;19.050;2023-06-22T13:38:23;31.22;48.71
64937;SHT30;51452;47.698;19.050;2023-06-22T13:40:49;31.21;48.88
64937;SHT30;51452;47.698;19.050;2023-06-22T13:43:15;31.22;50.01
64937;SHT30;51452;47.698;19.050;2023-06-22T13:45:41;31.13;51.12
64937;SHT30;51452;47.698;19.050;2023-06-22T13:48:07;31.21;53.01
64937;SHT30;51452;47.698;19.050;2023-06-22T13:50:32;31.25;50.84
64937;SHT30;51452;47.698;19.050;2023-06-22T13:52:57;31.18;52.17
64937;SHT30;51452;47.698;19.050;2023-06-22T13:55:23;31.29;49.69
64937;SHT30;51452;47.698;19.050;2023-06-22T13:57:49;31.34;49.35
64937;SHT30;51452;47.698;19.050;2023-06-22T14:00:15;31.34;49.01
64937;SHT30;51452;47.698;19.050;2023-06-22T14:02:40;31.37;47.97
64937;SHT30;51452;47.698;19.050;2023-06-22T14:05:07;31.32;50.69
64937;SHT30;51452;47.698;19.050;2023-06-22T14:07:32;31.36;49.54
64937;SHT30;51452;47.698;19.050;2023-06-22T14:09:58;31.23;49.47
64937;SHT30;51452;47.698;19.050;2023-06-22T14:12:23;31.29;49.69
64937;SHT30;51452;47.698;19.050;2023-06-22T14:14:49;31.33;47.64
64937;SHT30;51452;47.698;19.050;2023-06-22T14:17:14;31.25;46.93
64937;SHT30;51452;47.698;19.050;2023-06-22T14:19:40;31.16;49.10
64937;SHT30;51452;47.698;19.050;2023-06-22T14:22:05;31.29;50.52
64937;SHT30;51452;47.698;19.050;2023-06-22T14:24:31;31.25;51.03
64937;SHT30;51452;47.698;19.050;2023-06-22T14:26:56;31.26;50.96
64937;SHT30;51452;47.698;19.050;2023-06-22T14:29:22;31.26;52.67
64937;SHT30;51452;47.698;19.050;2023-06-22T14:31:48;31.30;52.76
64937;SHT30;51452;47.698;19.050;2023-06-22T14:34:14;31.34;49.72
64937;SHT30;51452;47.698;19.050;2023-06-22T14:36:40;31.23;50.15
64937;SHT30;51452;47.698;19.050;2023-06-22T14:39:06;31.30;52.46
64937;SHT30;51452;47.698;19.050;2023-06-22T14:41:31;31.25;50.74
64937;SHT30;51452;47.698;19.050;2023-06-22T14:43:57;31.30;52.26
64937;SHT30;51452;47.698;19.050;2023-06-22T14:46:22;31.29;52.68
64937;SHT30;51452;47.698;19.050;2023-06-22T14:48:48;31.23;52.62
64937;SHT30;51452;47.698;19.050;2023-06-22T14:51:14;31.19;49.40
64937;SHT30;51452;47.698;19.050;2023-06-22T14:53:40;31.22;47.68
64937;SHT30;51452;47.698;19.050;2023-06-22T14:56:05;31.21;50.79
64937;SHT30;51452;47.698;19.050;2023-06-22T14:58:32;31.15;49.07
64937;SHT30;51452;47.698;19.050;2023-06-22T15:01:04;31.12;50.36
64937;SHT30;51452;47.698;19.050;2023-06-22T15:03:34;31.13;51.03
64937;SHT30;51452;47.698;19.050;2023-06-22T15:06:01;31.06;50.31
64937;SHT30;51452;47.698;19.050;2023-06-22T15:08:26;31.13;51.97
64937;SHT30;51452;47.698;19.050;2023-06-22T15:10:52;31.12;51.35
64937;SHT30;51452;47.698;19.050;2023-06-22T15:13:18;31.06;52.02
64937;SHT30;51452;47.698;19.050;2023-06-22T15:15:46;31.08;55.02
64937;SHT30;51452;47.698;19.050;2023-06-22T15:18:15;30.99;52.61